Time;durP1;ratioP1;P1;durP2;ratioP2;P2;SDS_P1;SDS_P2;PMS_P1;PMS_P2;Temp;Humidity;BMP_temperature;BMP_pressure;BME280_temperature;BME280_humidity;BME280_pressure;Samples;Min_cycle;Max_cycle;Signal;HPM_P1;HPM_P2
2022/01/05 00:02:24;;;;;;;14.55;8.68;;;5.20;89.50;;;;;;6158251;23;20012;-64
2022/01/05 00:04:50;;;;;;;12.93;8.20;;;5.20;89.90;;;;;;6185840;23;20001;-65
2022/01/05 00:07:15;;;;;;;13.27;8.75;;;5.20;90.00;;;;;;6186008;23;20076;-64
2022/01/05 00:09:42;;;;;;;16.13;9.00;;;5.10;90.20;;;;;;6185903;23;20008;-63
2022/01/05 00:12:08;;;;;;;13.57;8.63;;;5.10;90.40;;;;;;6186124;23;20016;-64
2022/01/05 00:14:34;;;;;;;13.07;8.88;;;5.00;90.60;;;;;;6186146;23;20008;-63
2022/01/05 00:17:00;;;;;;;11.30;7.88;;;5.00;90.90;;;;;;6185872;23;20001;-64
2022/01/05 00:19:25;;;;;;;14.02;8.88;;;4.90;91.00;;;;;;6185692;23;20059;-64
2022/01/05 00:21:51;;;;;;;14.55;8.77;;;4.90;91.30;;;;;;6185826;23;20031;-64
2022/01/05 00:24:17;;;;;;;13.63;8.95;;;4.90;91.70;;;;;;6185645;23;20051;-64
2022/01/05 00:26:43;;;;;;;14.20;9.48;;;4.80;92.00;;;;;;6185982;23;20000;-63
2022/01/05 00:29:08;;;;;;;14.00;9.35;;;4.80;92.50;;;;;;6185873;23;20056;-64
2022/01/05 00:31:34;;;;;;;16.13;10.90;;;4.70;92.80;;;;;;6159523;23;20032;-63
2022/01/05 00:34:00;;;;;;;15.45;10.88;;;4.60;93.00;;;;;;6186043;23;20052;-63
2022/01/05 00:36:25;;;;;;;13.88;9.77;;;4.60;93.30;;;;;;6185745;23;20004;-64
2022/01/05 00:38:51;;;;;;;15.18;10.18;;;4.60;93.50;;;;;;6159637;23;20012;-63
2022/01/05 00:41:17;;;;;;;16.20;10.05;;;4.60;93.80;;;;;;6185814;23;20424;-63
2022/01/05 00:43:42;;;;;;;17.00;10.77;;;4.50;93.90;;;;;;6185539;23;20302;-64
2022/01/05 00:46:08;;;;;;;16.92;11.82;;;4.40;94.10;;;;;;6185566;23;20076;-63
2022/01/05 00:48:35;;;;;;;17.35;11.10;;;4.40;94.30;;;;;;6185508;23;19997;-64
2022/01/05 00:51:03;;;;;;;16.38;11.27;;;4.40;94.50;;;;;;6159396;23;20008;-63
2022/01/05 00:53:29;;;;;;;16.70;11.45;;;4.30;94.60;;;;;;6185985;23;20025;-65
2022/01/05 00:55:55;;;;;;;17.33;11.90;;;4.30;94.70;;;;;;6159396;23;20090;-63
2022/01/05 00:58:21;;;;;;;17.08;11.20;;;4.30;94.90;;;;;;6185482;23;20072;-64
2022/01/05 01:00:47;;;;;;;15.20;10.57;;;4.20;95.00;;;;;;6185652;23;20040;-63
2022/01/05 01:03:13;;;;;;;16.95;11.27;;;4.20;95.20;;;;;;6185956;23;20060;-64
2022/01/05 01:05:39;;;;;;;17.58;11.52;;;4.20;95.20;;;;;;6159663;23;20005;-62
2022/01/05 01:08:05;;;;;;;17.27;12.18;;;4.20;95.40;;;;;;6185533;23;20123;-63
2022/01/05 01:10:31;;;;;;;18.00;12.00;;;4.20;95.40;;;;;;6185431;23;20004;-63
2022/01/05 01:12:57;;;;;;;16.52;11.38;;;4.20;95.60;;;;;;6158739;23;20016;-64
2022/01/05 01:15:23;;;;;;;17.23;11.25;;;4.10;95.70;;;;;;6184832;23;20005;-64
2022/01/05 01:17:48;;;;;;;18.23;11.48;;;4.20;95.80;;;;;;6185729;23;20028;-64
2022/01/05 01:20:15;;;;;;;17.35;11.85;;;4.20;95.80;;;;;;6185394;23;20048;-64
2022/01/05 01:22:42;;;;;;;16.75;11.63;;;4.20;95.80;;;;;;6185245;23;20376;-63
2022/01/05 01:25:08;;;;;;;16.85;11.45;;;4.20;95.80;;;;;;6185194;23;20032;-64
2022/01/05 01:27:35;;;;;;;16.58;11.10;;;4.20;95.90;;;;;;6185161;23;19997;-64
2022/01/05 01:30:01;;;;;;;18.60;11.85;;;4.20;96.00;;;;;;6185050;23;20031;-64
2022/01/05 01:32:27;;;;;;;18.65;12.27;;;4.20;96.10;;;;;;6184853;23;20060;-64
2022/01/05 01:34:52;;;;;;;19.10;12.07;;;4.20;95.90;;;;;;6185183;23;20009;-64
2022/01/05 01:37:18;;;;;;;19.10;12.30;;;4.20;96.00;;;;;;6185093;23;19997;-64
2022/01/05 01:39:44;;;;;;;19.63;12.48;;;4.20;96.00;;;;;;6185130;23;20067;-64
2022/01/05 01:42:09;;;;;;;18.90;12.23;;;4.20;96.00;;;;;;6185473;23;20072;-64
2022/01/05 01:44:35;;;;;;;17.05;12.10;;;4.20;96.10;;;;;;6185099;23;20084;-64
2022/01/05 01:47:01;;;;;;;17.05;11.60;;;4.20;96.00;;;;;;6184846;23;20004;-64
2022/01/05 01:49:26;;;;;;;19.42;11.50;;;4.20;96.20;;;;;;6185111;23;20008;-65
2022/01/05 01:51:52;;;;;;;16.63;11.55;;;4.20;96.40;;;;;;6185314;23;20063;-63
2022/01/05 01:54:18;;;;;;;17.05;11.52;;;4.10;96.50;;;;;;6184929;23;20008;-63
2022/01/05 01:56:47;;;;;;;18.52;11.27;;;4.10;96.60;;;;;;6184896;23;20015;-64
2022/01/05 01:59:14;;;;;;;18.60;14.68;;;4.20;96.70;;;;;;6185074;23;20015;-64
2022/01/05 02:01:40;;;;;;;23.42;19.67;;;4.20;96.80;;;;;;6158647;23;20084;-64
2022/01/05 02:04:06;;;;;;;25.75;22.35;;;4.20;96.70;;;;;;6184906;23;20055;-64
2022/01/05 02:06:32;;;;;;;31.00;27.67;;;4.20;96.80;;;;;;6184849;23;20032;-64
2022/01/05 02:08:59;;;;;;;28.88;25.88;;;4.30;96.90;;;;;;6184870;23;20004;-64
2022/01/05 02:11:25;;;;;;;27.33;23.85;;;4.30;96.80;;;;;;6184936;23;20416;-64
2022/01/05 02:13:51;;;;;;;27.75;23.08;;;4.30;96.80;;;;;;6184739;23;20001;-63
2022/01/05 02:16:22;;;;;;;28.65;24.00;;;4.30;96.80;;;;;;6184790;23;20009;-65
2022/01/05 02:19:00;;;;;;;26.58;23.08;;;4.40;96.70;;;;;;6184627;23;20001;-63
2022/01/05 02:21:28;;;;;;;25.10;21.15;;;4.40;96.70;;;;;;6184728;23;20005;-63
2022/01/05 02:23:54;;;;;;;23.85;20.10;;;4.30;96.70;;;;;;6184493;23;20016;-64
2022/01/05 02:26:20;;;;;;;23.90;18.88;;;4.40;96.80;;;;;;6184414;23;20004;-63
2022/01/05 02:28:45;;;;;;;25.30;19.92;;;4.40;96.70;;;;;;6184581;23;20005;-63
2022/01/05 02:31:11;;;;;;;22.23;19.02;;;4.40;96.80;;;;;;6158519;23;20325;-63
2022/01/05 02:33:40;;;;;;;23.08;18.98;;;4.40;96.70;;;;;;6184510;23;20021;-63
2022/01/05 02:36:06;;;;;;;22.38;18.52;;;4.40;96.80;;;;;;6184550;23;20009;-66
2022/01/05 02:38:32;;;;;;;20.20;15.10;;;4.40;96.70;;;;;;6184672;23;20080;-64
2022/01/05 02:41:06;;;;;;;21.27;14.68;;;4.50;96.40;;;;;;6158726;23;20085;-63
2022/01/05 02:43:32;;;;;;;18.63;13.32;;;4.60;96.10;;;;;;6184436;23;20008;-63
2022/01/05 02:45:57;;;;;;;18.88;13.40;;;4.50;96.30;;;;;;6184409;23;20325;-64
2022/01/05 02:48:23;;;;;;;16.60;12.23;;;4.40;96.40;;;;;;6184580;23;20421;-65
2022/01/05 02:50:48;;;;;;;18.75;12.73;;;4.40;96.40;;;;;;6184513;23;20381;-64
2022/01/05 02:53:14;;;;;;;19.17;11.82;;;4.50;96.30;;;;;;6184361;23;20306;-62
2022/01/05 02:55:40;;;;;;;18.23;12.15;;;4.50;96.40;;;;;;6184278;23;20055;-64
2022/01/05 02:58:05;;;;;;;17.85;12.35;;;4.50;96.20;;;;;;6184421;23;20365;-64
2022/01/05 03:00:31;;;;;;;16.10;11.80;;;4.50;96.10;;;;;;6184296;23;20061;-64
2022/01/05 03:02:57;;;;;;;19.52;12.60;;;4.50;96.20;;;;;;6183549;23;20055;-64
2022/01/05 03:05:22;;;;;;;16.40;11.60;;;4.60;96.10;;;;;;6184782;23;20372;-63
2022/01/05 03:07:48;;;;;;;20.08;11.75;;;4.60;96.00;;;;;;6184442;23;20005;-64
2022/01/05 03:10:14;;;;;;;18.73;11.73;;;4.50;95.90;;;;;;6184297;23;20001;-63
2022/01/05 03:12:41;;;;;;;17.65;12.15;;;4.50;95.70;;;;;;6184189;23;20001;-63
2022/01/05 03:15:08;;;;;;;19.45;12.32;;;4.60;95.60;;;;;;6184280;23;20001;-63
2022/01/05 03:17:34;;;;;;;16.92;11.88;;;4.50;95.60;;;;;;6157975;23;20009;-63
2022/01/05 03:19:59;;;;;;;15.30;11.05;;;4.50;95.70;;;;;;6184289;23;20432;-63
2022/01/05 03:22:25;;;;;;;16.92;11.73;;;4.50;95.40;;;;;;6184168;23;20005;-63
2022/01/05 03:24:51;;;;;;;16.23;10.85;;;4.50;95.50;;;;;;6184039;23;20024;-63
2022/01/05 03:27:17;;;;;;;15.80;10.45;;;4.50;95.50;;;;;;6184307;23;20120;-63
2022/01/05 03:29:42;;;;;;;16.00;11.23;;;4.50;95.40;;;;;;6184290;23;20001;-63
2022/01/05 03:32:08;;;;;;;16.30;10.70;;;4.50;95.10;;;;;;6183973;23;20001;-64
2022/01/05 03:34:36;;;;;;;18.40;11.52;;;4.40;95.20;;;;;;6184140;23;20013;-64
2022/01/05 03:37:02;;;;;;;17.00;10.98;;;4.40;95.30;;;;;;6184128;23;20012;-63
2022/01/05 03:39:27;;;;;;;17.02;11.27;;;4.40;95.20;;;;;;6183987;23;20037;-64
2022/01/05 03:41:53;;;;;;;17.15;11.52;;;4.40;95.30;;;;;;6183887;23;20010;-64
2022/01/05 03:44:19;;;;;;;15.77;10.95;;;4.30;95.40;;;;;;6183953;23;20306;-63
2022/01/05 03:46:44;;;;;;;16.63;10.65;;;4.30;95.30;;;;;;6184020;23;20429;-63
2022/01/05 03:49:10;;;;;;;19.45;11.55;;;4.30;95.30;;;;;;6183957;23;19997;-63
2022/01/05 03:51:36;;;;;;;17.55;10.82;;;4.30;95.30;;;;;;6184061;23;19997;-63
2022/01/05 03:54:01;;;;;;;17.55;11.07;;;4.40;95.20;;;;;;6184376;23;20009;-63
2022/01/05 03:56:27;;;;;;;17.85;10.43;;;4.30;95.30;;;;;;6184043;23;20005;-64
2022/01/05 03:58:53;;;;;;;15.38;10.90;;;4.30;95.40;;;;;;6184013;23;20072;-63
2022/01/05 04:01:18;;;;;;;16.00;10.40;;;4.30;95.30;;;;;;6184007;23;20012;-64
2022/01/05 04:03:44;;;;;;;16.70;10.98;;;4.30;95.30;;;;;;6183694;23;20001;-64
2022/01/05 04:06:10;;;;;;;16.60;10.75;;;4.30;95.40;;;;;;6184059;23;20436;-64
2022/01/05 04:08:35;;;;;;;17.23;11.02;;;4.30;95.30;;;;;;6184316;23;19998;-64
2022/01/05 04:11:02;;;;;;;18.35;10.75;;;4.30;95.20;;;;;;6183860;23;20001;-64
2022/01/05 04:13:27;;;;;;;15.05;10.93;;;4.30;95.30;;;;;;6157823;23;20012;-65
2022/01/05 04:15:53;;;;;;;14.95;10.60;;;4.30;95.30;;;;;;6184041;23;20005;-64
2022/01/05 04:18:18;;;;;;;17.67;10.65;;;4.30;95.40;;;;;;6183947;23;20011;-64
2022/01/05 04:20:44;;;;;;;16.40;10.57;;;4.30;95.40;;;;;;6183593;23;20078;-64
2022/01/05 04:23:10;;;;;;;15.95;10.65;;;4.30;95.40;;;;;;6183634;23;20001;-64
2022/01/05 04:25:36;;;;;;;16.95;11.60;;;4.30;95.40;;;;;;6183719;23;20435;-64
2022/01/05 04:28:03;;;;;;;16.77;11.48;;;4.30;95.30;;;;;;6183732;23;20001;-64
2022/01/05 04:30:29;;;;;;;18.63;10.90;;;4.30;95.40;;;;;;6183737;23;20031;-63
2022/01/05 04:32:54;;;;;;;17.77;11.40;;;4.30;95.30;;;;;;6178012;23;20218;-63
2022/01/05 04:35:20;;;;;;;17.88;12.02;;;4.30;95.40;;;;;;6214176;23;20019;-63
2022/01/05 04:37:46;;;;;;;18.15;12.10;;;4.30;95.40;;;;;;6213917;23;20668;-64
2022/01/05 04:40:13;;;;;;;19.00;12.50;;;4.30;95.40;;;;;;6213630;23;20001;-63
2022/01/05 04:42:39;;;;;;;18.65;12.50;;;4.40;95.40;;;;;;6213695;23;20011;-63
2022/01/05 04:45:06;;;;;;;17.35;12.02;;;4.40;95.50;;;;;;6213755;23;20227;-63
2022/01/05 04:47:31;;;;;;;16.45;11.10;;;4.40;95.20;;;;;;6213984;23;20001;-64
2022/01/05 04:49:57;;;;;;;15.88;11.35;;;4.40;95.30;;;;;;6215686;23;20010;-64
2022/01/05 04:52:22;;;;;;;17.02;11.68;;;4.40;95.40;;;;;;6214935;23;20071;-64
2022/01/05 04:54:48;;;;;;;18.95;11.90;;;4.50;95.40;;;;;;6215848;23;20001;-64
2022/01/05 04:57:15;;;;;;;18.42;12.20;;;4.50;95.30;;;;;;6215541;23;20004;-64
2022/01/05 04:59:41;;;;;;;17.60;12.60;;;4.50;95.20;;;;;;6215493;23;20032;-64
2022/01/05 05:02:07;;;;;;;18.05;12.77;;;4.50;95.20;;;;;;6215527;23;20001;-65
2022/01/05 05:04:33;;;;;;;21.35;14.40;;;4.50;95.20;;;;;;6215251;23;20032;-64
2022/01/05 05:06:58;;;;;;;20.45;14.25;;;4.50;95.30;;;;;;6215093;23;20076;-63
2022/01/05 05:09:24;;;;;;;22.17;14.15;;;4.60;95.20;;;;;;6215330;23;20000;-64
2022/01/05 05:11:51;;;;;;;22.83;13.48;;;4.50;95.20;;;;;;6215371;23;20428;-64
2022/01/05 05:14:17;;;;;;;20.63;14.60;;;4.60;95.10;;;;;;6215275;23;20325;-65
2022/01/05 05:16:42;;;;;;;21.98;14.38;;;4.60;95.10;;;;;;6215426;23;20005;-64
2022/01/05 05:19:08;;;;;;;21.20;14.18;;;4.60;95.20;;;;;;6215468;23;20005;-64
2022/01/05 05:21:34;;;;;;;18.83;13.52;;;4.60;95.20;;;;;;6215069;23;20004;-65
2022/01/05 05:24:00;;;;;;;19.88;13.05;;;4.70;95.00;;;;;;6215272;23;20011;-64
2022/01/05 05:26:26;;;;;;;19.45;13.40;;;4.60;95.00;;;;;;6213917;23;20007;-64
2022/01/05 05:28:52;;;;;;;22.15;14.13;;;4.70;95.10;;;;;;6215670;23;20083;-63
2022/01/05 05:31:18;;;;;;;22.23;14.32;;;4.70;94.90;;;;;;6215179;23;19997;-63
2022/01/05 05:33:44;;;;;;;19.50;15.13;;;4.70;94.90;;;;;;6191838;23;20354;-64
2022/01/05 05:36:09;;;;;;;22.58;15.43;;;4.70;94.70;;;;;;6158785;23;20001;-64
2022/01/05 05:38:35;;;;;;;18.70;14.32;;;4.60;94.80;;;;;;6185140;23;20012;-64
2022/01/05 05:41:01;;;;;;;20.17;14.63;;;4.60;94.90;;;;;;6184989;23;20005;-64
2022/01/05 05:43:27;;;;;;;20.85;14.07;;;4.60;95.10;;;;;;6184966;23;20003;-64
2022/01/05 05:45:53;;;;;;;19.40;14.32;;;4.60;95.10;;;;;;6185109;23;20001;-64
2022/01/05 05:48:18;;;;;;;20.45;14.15;;;4.60;95.10;;;;;;6184990;23;20001;-65
2022/01/05 05:50:44;;;;;;;22.17;15.05;;;4.50;95.10;;;;;;6184893;23;20007;-63
2022/01/05 05:53:10;;;;;;;21.05;15.90;;;4.50;95.20;;;;;;6184800;23;20036;-64
2022/01/05 05:55:35;;;;;;;21.90;15.90;;;4.50;95.20;;;;;;6184639;23;20024;-64
2022/01/05 05:58:01;;;;;;;24.42;17.10;;;4.60;95.20;;;;;;6184851;23;20001;-65
2022/01/05 06:00:29;;;;;;;22.50;16.33;;;4.50;95.30;;;;;;6184322;23;20005;-64
2022/01/05 06:02:56;;;;;;;21.25;15.85;;;4.50;95.30;;;;;;6158509;23;20068;-64
2022/01/05 06:05:22;;;;;;;23.17;16.77;;;4.50;95.40;;;;;;6184848;23;19994;-64
2022/01/05 06:07:47;;;;;;;22.60;15.88;;;4.50;95.40;;;;;;6158456;23;20025;-64
2022/01/05 06:10:13;;;;;;;21.38;15.80;;;4.60;95.50;;;;;;6184773;23;20479;-64
2022/01/05 06:12:39;;;;;;;22.23;15.77;;;4.60;95.40;;;;;;6184775;23;20374;-64
2022/01/05 06:15:05;;;;;;;21.45;15.68;;;4.60;95.50;;;;;;6185067;23;20016;-65
2022/01/05 06:17:31;;;;;;;20.63;15.60;;;4.60;95.50;;;;;;6184966;23;20014;-64
2022/01/05 06:19:56;;;;;;;24.77;15.70;;;4.70;95.40;;;;;;6184727;23;20009;-65
2022/01/05 06:22:22;;;;;;;21.98;16.00;;;4.70;95.20;;;;;;6184779;23;20005;-65
2022/01/05 06:24:48;;;;;;;22.90;15.95;;;4.80;95.00;;;;;;6184637;23;19997;-64
2022/01/05 06:27:14;;;;;;;21.52;16.30;;;4.90;95.20;;;;;;6184650;23;20005;-64
2022/01/05 06:29:40;;;;;;;22.92;16.40;;;4.90;95.20;;;;;;6184610;23;20076;-63
2022/01/05 06:32:06;;;;;;;25.77;18.30;;;4.90;95.20;;;;;;6184307;23;20001;-64
2022/01/05 06:34:33;;;;;;;24.38;17.80;;;5.00;95.10;;;;;;6184318;23;20440;-65
2022/01/05 06:36:58;;;;;;;23.92;17.17;;;5.00;95.10;;;;;;6184165;23;20005;-64
2022/01/05 06:39:24;;;;;;;24.83;18.25;;;5.10;95.10;;;;;;6183783;23;20437;-65
2022/01/05 06:41:50;;;;;;;25.17;18.13;;;5.10;95.00;;;;;;6184236;23;20421;-65
2022/01/05 06:44:16;;;;;;;22.35;16.13;;;5.10;95.00;;;;;;6184171;23;20306;-65
2022/01/05 06:46:41;;;;;;;21.67;15.32;;;5.20;95.10;;;;;;6184288;23;19997;-64
2022/01/05 06:49:07;;;;;;;24.58;17.60;;;5.20;95.00;;;;;;6184344;23;20005;-64
2022/01/05 06:51:32;;;;;;;24.80;16.73;;;5.30;94.90;;;;;;6184314;23;20072;-65
2022/01/05 06:53:58;;;;;;;22.73;17.05;;;5.40;94.70;;;;;;6157915;23;20043;-64
2022/01/05 06:56:24;;;;;;;22.83;15.70;;;5.50;94.50;;;;;;6184303;23;20047;-64
2022/01/05 06:58:49;;;;;;;20.60;14.30;;;5.50;94.50;;;;;;6184548;23;20425;-64
2022/01/05 07:01:15;;;;;;;21.38;14.75;;;5.60;94.30;;;;;;6184413;23;20013;-66
2022/01/05 07:03:41;;;;;;;21.88;13.95;;;5.60;94.30;;;;;;6184041;23;20439;-64
2022/01/05 07:06:06;;;;;;;22.15;13.73;;;5.70;94.00;;;;;;6184118;23;20372;-65
2022/01/05 07:08:32;;;;;;;23.13;14.32;;;5.70;94.10;;;;;;6183984;23;20325;-65
2022/01/05 07:10:58;;;;;;;21.27;14.20;;;5.70;94.00;;;;;;6184164;23;20001;-65
2022/01/05 07:13:23;;;;;;;25.17;14.80;;;5.80;93.80;;;;;;6184239;23;20011;-65
2022/01/05 07:15:49;;;;;;;21.40;13.05;;;5.80;93.80;;;;;;6184024;23;20436;-64
2022/01/05 07:18:15;;;;;;;23.30;13.20;;;5.90;93.80;;;;;;6184010;23;20421;-64
2022/01/05 07:20:41;;;;;;;22.45;14.30;;;5.90;93.80;;;;;;6183777;23;20055;-64
2022/01/05 07:23:07;;;;;;;20.80;12.93;;;6.00;93.50;;;;;;6183992;23;20081;-64
2022/01/05 07:25:33;;;;;;;21.40;13.57;;;6.10;93.30;;;;;;6184115;23;20001;-64
2022/01/05 07:27:58;;;;;;;24.35;14.80;;;6.10;93.60;;;;;;6183978;23;20008;-65
2022/01/05 07:30:24;;;;;;;25.90;14.63;;;6.20;93.20;;;;;;6183897;23;20029;-65
2022/01/05 07:32:50;;;;;;;23.35;13.45;;;6.20;93.10;;;;;;6183837;23;20020;-64
2022/01/05 07:35:15;;;;;;;24.27;14.38;;;6.30;93.00;;;;;;6184153;23;20005;-64
2022/01/05 07:37:41;;;;;;;18.98;12.75;;;6.30;93.10;;;;;;6184181;23;20005;-64
2022/01/05 07:40:08;;;;;;;18.65;11.70;;;6.40;92.90;;;;;;6184101;23;20001;-64
2022/01/05 07:42:34;;;;;;;18.02;11.25;;;6.40;92.80;;;;;;6183901;23;20013;-64
2022/01/05 07:45:04;;;;;;;17.75;11.82;;;6.50;92.50;;;;;;6183920;23;20001;-66
2022/01/05 07:47:31;;;;;;;20.17;11.30;;;6.60;92.50;;;;;;6184055;23;19997;-64
2022/01/05 07:49:56;;;;;;;18.02;11.43;;;6.70;92.30;;;;;;6183883;23;19997;-65
2022/01/05 07:52:22;;;;;;;17.27;12.15;;;6.70;92.50;;;;;;6184032;23;19997;-65
2022/01/05 07:54:48;;;;;;;17.27;11.75;;;6.80;92.30;;;;;;6184130;23;19998;-65
2022/01/05 07:57:13;;;;;;;16.63;11.38;;;6.80;92.10;;;;;;6183780;23;20055;-65
2022/01/05 07:59:39;;;;;;;15.63;11.45;;;6.90;92.20;;;;;;6157729;23;20005;-65
2022/01/05 08:02:05;;;;;;;16.75;11.40;;;7.00;91.90;;;;;;6183665;23;20005;-65
2022/01/05 08:04:30;;;;;;;15.77;11.07;;;7.00;91.80;;;;;;6183684;23;20421;-65
2022/01/05 08:06:56;;;;;;;16.02;11.00;;;7.10;91.80;;;;;;6183733;23;20313;-64
2022/01/05 08:09:22;;;;;;;16.98;11.48;;;7.20;91.80;;;;;;6183827;23;20055;-66
2022/01/05 08:11:47;;;;;;;17.58;11.60;;;7.20;91.80;;;;;;6183028;23;20008;-65
2022/01/05 08:14:13;;;;;;;15.55;11.15;;;7.30;91.70;;;;;;6183637;23;20031;-64
2022/01/05 08:16:39;;;;;;;17.88;12.18;;;7.40;91.30;;;;;;6183215;23;20001;-64
2022/01/05 08:19:05;;;;;;;18.85;12.35;;;7.40;91.40;;;;;;6183706;23;20475;-64
2022/01/05 08:21:31;;;;;;;17.60;12.32;;;7.50;91.40;;;;;;6183867;23;20005;-65
2022/01/05 08:23:56;;;;;;;17.67;12.13;;;7.50;91.60;;;;;;6158617;23;20012;-63
2022/01/05 08:26:22;;;;;;;17.83;11.95;;;7.60;91.10;;;;;;6185626;23;20002;-63
2022/01/05 08:28:48;;;;;;;17.73;12.02;;;7.70;91.20;;;;;;6184851;23;20001;-65
2022/01/05 08:31:14;;;;;;;20.75;12.68;;;7.70;91.10;;;;;;6185773;23;20403;-65
2022/01/05 08:33:40;;;;;;;18.27;11.98;;;7.80;91.00;;;;;;6185809;23;20028;-64
2022/01/05 08:36:06;;;;;;;18.40;12.43;;;7.80;91.00;;;;;;6185655;23;20008;-65
2022/01/05 08:38:32;;;;;;;17.80;12.07;;;7.90;91.00;;;;;;6185421;23;20008;-65
2022/01/05 08:40:58;;;;;;;16.38;10.82;;;8.00;90.90;;;;;;6185578;23;20011;-64
2022/01/05 08:43:23;;;;;;;17.70;10.95;;;8.00;90.80;;;;;;6185403;23;20005;-64
2022/01/05 08:45:49;;;;;;;15.98;10.45;;;8.00;90.90;;;;;;6185492;23;20001;-64
2022/01/05 08:48:15;;;;;;;13.85;9.10;;;8.20;90.80;;;;;;6185168;23;20005;-65
2022/01/05 08:50:42;;;;;;;15.38;10.00;;;8.30;90.60;;;;;;6185514;23;20025;-65
2022/01/05 08:53:08;;;;;;;13.77;9.60;;;8.30;90.60;;;;;;6185446;23;20004;-65
2022/01/05 08:55:40;;;;;;;13.38;8.82;;;8.40;90.40;;;;;;6185274;23;20005;-65
2022/01/05 08:58:07;;;;;;;14.50;9.90;;;8.50;90.10;;;;;;6185288;23;20008;-64
2022/01/05 09:00:35;;;;;;;16.05;9.95;;;8.50;90.20;;;;;;6185436;23;20051;-64
2022/01/05 09:03:01;;;;;;;15.25;10.20;;;8.60;90.00;;;;;;6185128;23;20005;-64
2022/01/05 09:05:27;;;;;;;16.17;10.82;;;8.70;89.60;;;;;;6184950;23;20008;-66
2022/01/05 09:07:52;;;;;;;18.17;10.95;;;8.60;89.60;;;;;;6185199;23;19998;-65
2022/01/05 09:10:18;;;;;;;20.40;11.43;;;8.70;89.40;;;;;;6185204;23;19997;-65
2022/01/05 09:12:44;;;;;;;18.85;11.75;;;8.70;88.70;;;;;;6185351;23;20033;-66
2022/01/05 09:15:11;;;;;;;18.10;11.50;;;8.70;88.40;;;;;;6185205;23;20008;-64
2022/01/05 09:17:37;;;;;;;16.83;10.75;;;8.70;88.20;;;;;;6185148;23;20009;-65
2022/01/05 09:20:04;;;;;;;16.20;11.30;;;8.70;87.80;;;;;;6185078;23;20005;-64
2022/01/05 09:22:30;;;;;;;16.88;11.73;;;8.70;88.40;;;;;;6184979;23;20369;-65
2022/01/05 09:24:56;;;;;;;16.90;11.35;;;8.70;87.80;;;;;;6185009;23;19997;-66
2022/01/05 09:27:22;;;;;;;15.32;10.80;;;8.70;88.00;;;;;;6185057;23;20004;-66
2022/01/05 09:29:48;;;;;;;16.27;10.32;;;8.70;87.90;;;;;;6185125;23;20005;-65
2022/01/05 09:32:15;;;;;;;13.55;9.73;;;8.80;87.70;;;;;;6184873;23;20012;-64
2022/01/05 09:34:42;;;;;;;15.30;10.10;;;8.80;87.80;;;;;;6185412;23;20328;-67
2022/01/05 09:37:20;;;;;;;15.73;10.50;;;8.80;87.60;;;;;;6184845;23;20009;-66
2022/01/05 09:42:31;;;;;;;16.10;11.00;;;8.90;87.10;;;;;;6184839;23;20100;-65
2022/01/05 09:44:58;;;;;;;14.70;10.35;;;9.10;86.70;;;;;;6184820;23;20001;-65
2022/01/05 09:47:26;;;;;;;15.30;10.05;;;9.10;86.70;;;;;;6184889;23;20004;-65
2022/01/05 09:50:02;;;;;;;14.45;10.75;;;9.20;86.40;;;;;;6184856;23;20323;-65
2022/01/05 09:52:30;;;;;;;16.73;11.27;;;9.30;86.30;;;;;;6184641;23;20070;-65
2022/01/05 09:54:56;;;;;;;15.55;11.18;;;9.30;85.90;;;;;;6184883;23;20068;-65
2022/01/05 09:57:22;;;;;;;17.33;11.38;;;9.30;85.60;;;;;;6184755;23;20376;-65
2022/01/05 09:59:49;;;;;;;17.05;11.48;;;9.40;84.70;;;;;;6184824;23;20298;-65
2022/01/05 10:02:18;;;;;;;16.48;10.88;;;9.40;84.40;;;;;;6185075;23;19997;-65
2022/01/05 10:04:45;;;;;;;17.58;11.40;;;9.40;84.60;;;;;;6184706;23;20421;-66
2022/01/05 10:07:12;;;;;;;16.33;10.85;;;9.40;85.10;;;;;;6184559;23;20072;-64
2022/01/05 10:09:41;;;;;;;16.55;11.10;;;9.50;85.10;;;;;;6184877;23;20004;-64
2022/01/05 10:12:08;;;;;;;15.23;10.73;;;9.50;84.90;;;;;;6158185;23;20001;-64
2022/01/05 10:14:34;;;;;;;15.20;10.30;;;9.80;84.90;;;;;;6184441;23;20013;-67
2022/01/05 10:17:07;;;;;;;15.23;10.27;;;10.10;84.40;;;;;;6183932;23;20492;-65
2022/01/05 10:19:34;;;;;;;13.82;10.02;;;10.60;83.30;;;;;;6184682;23;20053;-65
2022/01/05 10:22:00;;;;;;;18.20;11.68;;;11.00;80.10;;;;;;6184264;23;20012;-66
2022/01/05 10:24:45;;;;;;;15.60;10.57;;;11.20;79.00;;;;;;6184260;23;20332;-66
2022/01/05 10:27:19;;;;;;;15.52;9.77;;;11.60;77.40;;;;;;6184330;23;20071;-66
2022/01/05 10:29:59;;;;;;;14.80;9.10;;;12.00;76.80;;;;;;6184449;23;20103;-64
2022/01/05 10:32:29;;;;;;;14.80;9.40;;;12.10;74.70;;;;;;6166548;23;20074;-65
2022/01/05 10:35:10;;;;;;;11.55;7.80;;;12.00;74.50;;;;;;6214462;23;20040;-64
2022/01/05 10:37:39;;;;;;;10.77;7.55;;;11.80;73.70;;;;;;6214296;23;20024;-66
2022/01/05 10:40:14;;;;;;;11.35;7.40;;;11.60;74.60;;;;;;6214498;23;20217;-67
2022/01/05 10:42:41;;;;;;;10.55;7.60;;;11.30;75.80;;;;;;6214372;23;20027;-65
2022/01/05 10:45:11;;;;;;;11.90;7.90;;;11.30;76.30;;;;;;6214323;23;20032;-65
2022/01/05 10:47:36;;;;;;;12.18;7.90;;;11.40;76.30;;;;;;6214587;23;20347;-66
2022/01/05 10:50:11;;;;;;;11.05;7.60;;;11.50;76.20;;;;;;6214446;23;20046;-67
2022/01/05 10:52:36;;;;;;;10.38;7.68;;;11.60;75.80;;;;;;6214449;23;20059;-66
2022/01/05 10:55:16;;;;;;;12.65;7.93;;;11.70;75.90;;;;;;6212575;23;20008;-65
2022/01/05 10:57:59;;;;;;;11.38;7.40;;;11.70;75.00;;;;;;6214129;23;20475;-66
2022/01/05 11:00:40;;;;;;;11.63;7.47;;;11.90;74.30;;;;;;6214129;23;20008;-65
2022/01/05 11:03:35;;;;;;;11.07;7.25;;;11.90;74.40;;;;;;6214100;23;20474;-65
2022/01/05 11:06:14;;;;;;;11.43;7.93;;;11.80;74.00;;;;;;6214140;23;19997;-65
2022/01/05 11:08:52;;;;;;;11.07;8.05;;;11.60;74.70;;;;;;6213884;23;20000;-65
2022/01/05 11:11:37;;;;;;;13.43;9.00;;;11.60;74.20;;;;;;6213923;23;20001;-65
2022/01/05 11:14:11;;;;;;;13.48;8.90;;;11.50;75.00;;;;;;6212455;23;20492;-66
2022/01/05 11:16:38;;;;;;;13.43;9.30;;;11.30;75.60;;;;;;6214239;23;20005;-65
2022/01/05 11:19:24;;;;;;;15.13;9.88;;;11.10;76.30;;;;;;6212741;23;20009;-65
2022/01/05 11:22:09;;;;;;;13.38;9.73;;;11.00;76.50;;;;;;6213896;23;19997;-65
2022/01/05 11:24:41;;;;;;;13.85;9.02;;;10.90;77.00;;;;;;6213983;23;20032;-65
2022/01/05 11:27:10;;;;;;;12.95;8.90;;;10.70;78.20;;;;;;6214359;23;20000;-66
2022/01/05 11:29:37;;;;;;;12.35;8.43;;;10.60;78.10;;;;;;6214224;23;20005;-65
2022/01/05 11:32:05;;;;;;;14.00;8.80;;;10.50;78.40;;;;;;6211632;23;19997;-66
2022/01/05 11:34:31;;;;;;;13.77;9.13;;;10.50;78.60;;;;;;6184028;23;20013;-66
2022/01/05 11:36:58;;;;;;;13.60;9.57;;;10.50;78.70;;;;;;6184070;23;20088;-65
2022/01/05 11:39:25;;;;;;;14.85;9.70;;;10.40;79.00;;;;;;6183920;23;20100;-66
2022/01/05 11:41:53;;;;;;;14.30;8.73;;;10.40;79.30;;;;;;6183796;23;20087;-65
2022/01/05 11:44:19;;;;;;;14.30;9.32;;;10.30;79.60;;;;;;6183709;23;20449;-66
2022/01/05 11:46:46;;;;;;;14.15;9.32;;;10.40;79.80;;;;;;6183927;23;20425;-69
2022/01/05 11:49:15;;;;;;;15.98;10.05;;;10.30;80.00;;;;;;6183736;23;19998;-66
2022/01/05 11:51:40;;;;;;;14.88;10.30;;;10.30;80.60;;;;;;6183800;23;20008;-66
2022/01/05 11:54:23;;;;;;;15.65;11.18;;;10.20;80.80;;;;;;6183792;23;20004;-66
2022/01/05 11:56:54;;;;;;;;;;;10.20;81.10;;;;;;6158325;23;20005;-65
2022/01/05 11:59:35;;;;;;;14.43;10.25;;;9.90;81.90;;;;;;6185823;23;19904;-65
2022/01/05 12:02:07;;;;;;;14.13;10.27;;;9.80;82.40;;;;;;6185853;23;20005;-66
2022/01/05 12:04:56;;;;;;;13.82;10.30;;;9.80;82.80;;;;;;6185254;23;20039;-66
2022/01/05 12:07:43;;;;;;;18.38;12.50;;;9.70;83.40;;;;;;6186016;23;20001;-65
2022/01/05 12:10:24;;;;;;;15.63;10.07;;;9.60;83.60;;;;;;6185692;23;20009;-65
2022/01/05 12:12:53;;;;;;;14.35;10.13;;;9.60;83.80;;;;;;6159083;23;20429;-65
2022/01/05 12:15:42;;;;;;;15.43;10.90;;;9.60;84.10;;;;;;6185707;23;20005;-65
2022/01/05 12:18:08;;;;;;;13.48;9.50;;;9.60;84.10;;;;;;6185891;23;20072;-65
2022/01/05 12:20:35;;;;;;;15.52;11.00;;;9.50;84.60;;;;;;6185644;23;20025;-66
2022/01/05 12:23:19;;;;;;;19.05;13.75;;;9.40;85.00;;;;;;6185477;23;20008;-65
2022/01/05 12:26:04;;;;;;;20.73;14.45;;;9.30;85.30;;;;;;6185799;23;20012;-65
2022/01/05 12:28:32;;;;;;;19.23;13.43;;;9.20;85.60;;;;;;6185711;23;19997;-65
2022/01/05 12:30:58;;;;;;;18.05;13.02;;;9.10;86.00;;;;;;6185678;23;20001;-64
2022/01/05 12:33:25;;;;;;;18.90;13.77;;;9.00;86.60;;;;;;6185574;23;20017;-65
2022/01/05 12:36:01;;;;;;;19.52;13.55;;;8.90;87.20;;;;;;6185498;23;20009;-65
2022/01/05 12:38:36;;;;;;;18.52;13.32;;;8.80;87.40;;;;;;6185475;23;20005;-66
2022/01/05 12:41:26;;;;;;;20.60;13.90;;;8.80;87.80;;;;;;6185577;23;20314;-65
2022/01/05 12:43:53;;;;;;;18.70;12.57;;;8.70;88.20;;;;;;6185158;23;20001;-65